createdAt,value
2018-01-13T20:24:58.855Z,-61
2018-01-13T20:27:27.224Z,-61
2018-01-13T20:29:55.539Z,-64
2018-01-13T20:32:23.847Z,-62
2018-01-13T20:34:52.670Z,-63
2018-01-13T20:37:22.220Z,-64
2018-01-13T20:39:50.819Z,-63
2018-01-13T20:42:20.291Z,-61
2018-01-13T20:44:50.343Z,-64
2018-01-13T20:47:19.920Z,-61
2018-01-13T20:49:49.921Z,-63
2018-01-13T20:52:19.647Z,-61
2018-01-13T20:54:49.028Z,-62
2018-01-13T20:57:16.913Z,-61
2018-01-13T20:59:44.545Z,-58
2018-01-13T21:02:12.466Z,-63
2018-01-13T21:04:40.898Z,-66
2018-01-13T21:07:09.017Z,-64
2018-01-13T21:09:39.110Z,-64
2018-01-13T21:12:07.947Z,-63
2018-01-13T21:14:37.610Z,-63
2018-01-13T21:17:05.927Z,-61
2018-01-13T21:19:34.754Z,-61
2018-01-13T21:22:02.980Z,-59
2018-01-13T21:24:31.870Z,-61
2018-01-13T21:26:59.608Z,-59
2018-01-13T21:29:28.530Z,-61
2018-01-13T21:31:57.060Z,-60
2018-01-13T21:34:25.981Z,-59
2018-01-13T21:36:54.094Z,-59
2018-01-13T21:39:21.711Z,-59
2018-01-13T21:41:49.335Z,-59
2018-01-13T21:44:17.105Z,-61
2018-01-13T21:46:44.763Z,-61
2018-01-13T21:49:12.641Z,-63
2018-01-13T21:51:40.711Z,-62
2018-01-13T21:54:09.095Z,-62
2018-01-13T21:56:36.766Z,-61
2018-01-13T21:59:04.381Z,-61
2018-01-13T22:01:31.995Z,-61
2018-01-13T22:03:59.743Z,-61
2018-01-13T22:06:27.371Z,-61
2018-01-13T22:08:55.033Z,-61
2018-01-13T22:11:22.834Z,-62
2018-01-13T22:13:50.468Z,-61
2018-01-13T22:16:18.810Z,-59
2018-01-13T22:18:46.410Z,-56
2018-01-13T22:21:14.168Z,-59
2018-01-13T22:23:41.783Z,-60
2018-01-13T22:26:09.387Z,-60
2018-01-13T22:28:37.106Z,-62
2018-01-13T22:31:04.739Z,-61
2018-01-13T22:33:32.388Z,-60
2018-01-13T22:35:59.986Z,-62
2018-01-13T22:38:27.599Z,-62
2018-01-13T22:40:55.217Z,-61
2018-01-13T22:43:22.825Z,-58
2018-01-13T22:45:50.550Z,-59
2018-01-13T22:48:18.157Z,-60
2018-01-13T22:50:45.787Z,-60
2018-01-13T22:53:13.804Z,-60
2018-01-13T22:55:41.402Z,-59
2018-01-13T22:58:09.002Z,-59
2018-01-13T23:00:37.556Z,-59
2018-01-13T23:03:05.203Z,-60
2018-01-13T23:05:32.826Z,-60
2018-01-13T23:08:00.430Z,-60
2018-01-13T23:10:28.035Z,-60
2018-01-13T23:12:55.638Z,-59
2018-01-13T23:15:23.255Z,-60
2018-01-13T23:17:50.849Z,-58
2018-01-13T23:20:18.464Z,-59
2018-01-13T23:22:46.067Z,-60
2018-01-13T23:25:13.674Z,-59
2018-01-13T23:27:41.283Z,-59
2018-01-13T23:30:08.907Z,-59
2018-01-13T23:32:36.505Z,-60
2018-01-13T23:35:04.124Z,-60
2018-01-13T23:37:31.730Z,-56
2018-01-13T23:39:59.360Z,-58
2018-01-13T23:42:26.985Z,-59
2018-01-13T23:44:54.596Z,-59
2018-01-13T23:47:22.220Z,-59
2018-01-13T23:49:50.265Z,-60
2018-01-13T23:52:17.860Z,-59
2018-01-13T23:54:45.475Z,-59
2018-01-13T23:57:13.070Z,-60
2018-01-13T23:59:40.685Z,-58
